Главная страница
METAR-TAF:

METAR-TAF

Аэропорты :

Morristown, Нью-Джерси, США

широта: 40-48N, долгота: 074-25W, высота над уровнем моря: 57 м

Текущие метеонаблюдения

Эта сводка был подготовлена 16 минут назад, в 14:45 UTC
Ветер 7 Узел от северо-восточный
Температура 13°C
Влажность 94%
Давление 1004 hPa
Видимость: 11.3 км
Сплошная облачность на высоте 1000 фута
дымка

METAR: KMMU 261445Z 05007KT 7SM BR OVC010 13/12 A2966 RMK LTG DSNT SW AND W

Время: 11:01 (15:01 UTC)


TAF: отсутствует

Метеонаблюдения и прогнозы для более 4000 аэропортов (сводки METAR и TAF).

Имеющиеся станции представлены на карте желтыми и красными точками.

Чтобы увидеть название станции, наведите на нее мышь.

Затем щелкните, чтобы увидеть метеонаблюдения и метеопрогнозы.

Управление картой: чтобы увеличить масштаб, щелкните зеленые кнопки с черным крестиком; чтобы уменьшить масштаб, щелкните зеленую кнопку с тире; для просмотра соседних карт щелкайте зеленые стрелки.


METAR-TAF: